Time;durP1;ratioP1;P1;durP2;ratioP2;P2;SDS_P1;SDS_P2;PMS_P1;PMS_P2;Temp;Humidity;BMP_temperature;BMP_pressure;BME280_temperature;BME280_humidity;BME280_pressure;Samples;Min_cycle;Max_cycle;Signal;HPM_P1;HPM_P2
2022/01/18 00:01:29;;;;;;;19.60;4.60;;;;;;;10.95;61.48;103725.97;4990216;28;114086;-70
2022/01/18 00:03:57;;;;;;;18.33;4.72;;;;;;;10.93;61.55;103718.91;4989885;28;113798;-70
2022/01/18 00:06:25;;;;;;;25.15;5.10;;;;;;;10.91;61.51;103726.88;4990421;28;124730;-71
2022/01/18 00:08:52;;;;;;;25.33;4.72;;;;;;;10.90;61.52;103735.69;4991031;28;124031;-71
2022/01/18 00:11:23;;;;;;;18.55;4.55;;;;;;;10.87;61.62;103735.72;4991086;28;114950;-71
2022/01/18 00:13:58;;;;;;;21.55;4.60;;;;;;;10.87;61.68;103730.41;4989708;28;113836;-70
2022/01/18 00:16:31;;;;;;;19.88;4.93;;;;;;;10.86;61.83;103733.94;4989888;28;124018;-71
2022/01/18 00:19:05;;;;;;;20.25;4.70;;;;;;;10.85;61.88;103737.44;4988475;28;123746;-71
2022/01/18 00:22:03;;;;;;;24.48;5.00;;;;;;;10.83;61.82;103733.91;4988247;28;114589;-71
2022/01/18 00:24:26;;;;;;;25.38;5.88;;;;;;;10.82;61.92;103742.78;4991284;28;113947;-71
2022/01/18 00:26:53;;;;;;;27.90;5.40;;;;;;;10.83;61.90;103739.22;4988941;28;124042;-71
2022/01/18 00:29:23;;;;;;;22.17;5.43;;;;;;;10.84;62.01;103738.34;4989369;28;122648;-70
2022/01/18 00:32:10;;;;;;;23.17;4.47;;;;;;;10.84;61.88;103746.31;4990675;28;114297;-68
2022/01/18 00:34:40;;;;;;;21.90;5.05;;;;;;;10.85;61.94;103743.66;4988701;28;113678;-69
2022/01/18 00:39:36;;;;;;;25.33;5.18;;;;;;;10.87;61.78;103741.00;4990576;28;123634;-69
2022/01/18 00:42:04;;;;;;;29.02;4.93;;;;;;;10.87;61.74;103735.72;4990109;28;115116;-69
2022/01/18 00:44:31;;;;;;;22.17;4.97;;;;;;;10.88;61.91;103748.06;4990826;28;113933;-69
2022/01/18 00:46:58;;;;;;;16.63;4.82;;;;;;;10.88;61.62;103737.47;4990092;28;124045;-69
2022/01/18 00:49:26;;;;;;;20.88;5.32;;;;;;;10.87;61.88;103747.19;4988701;28;123421;-69
2022/01/18 00:51:56;;;;;;;18.98;5.32;;;;;;;10.88;61.74;103745.41;4990081;28;114714;-69
2022/01/18 00:54:31;;;;;;;20.17;5.65;;;;;;;10.87;62.04;103756.91;5005847;28;112989;-69
2022/01/18 00:56:59;;;;;;;24.77;6.18;;;;;;;10.86;61.91;103755.13;4989526;28;124004;-69
2022/01/18 00:59:26;;;;;;;24.48;6.55;;;;;;;10.87;61.83;103756.91;4990970;28;123748;-69
2022/01/18 01:01:54;;;;;;;16.67;5.75;;;;;;;10.87;61.84;103754.28;4990314;28;114094;-69
2022/01/18 01:04:24;;;;;;;28.02;6.13;;;;;;;10.86;62.02;103755.13;4989922;28;114019;-69
2022/01/18 01:06:52;;;;;;;31.85;6.50;;;;;;;10.84;62.10;103741.88;4989185;28;125326;-69
2022/01/18 01:09:19;;;;;;;23.48;6.68;;;;;;;10.84;62.13;103751.59;4989542;28;123794;-69
2022/01/18 01:11:47;;;;;;;19.33;5.85;;;;;;;10.83;62.01;103757.78;4990144;28;114861;-69
2022/01/18 01:14:20;;;;;;;23.48;5.15;;;;;;;10.82;61.97;103761.34;4990408;28;113998;-69
2022/01/18 01:17:04;;;;;;;26.52;6.57;;;;;;;10.82;62.03;103763.97;4989522;28;123989;-69
2022/01/18 01:46:40;;;;;;;21.25;5.65;;;;;;;10.70;62.07;103749.81;4989776;28;113993;-69
2022/01/18 01:49:12;;;;;;;23.42;5.78;;;;;;;10.71;62.53;103746.28;4989314;28;124562;-69
2022/01/18 01:51:41;;;;;;;27.30;6.40;;;;;;;10.73;62.18;103742.75;4986616;28;124598;-69
2022/01/18 01:54:10;;;;;;;29.65;6.40;;;;;;;10.75;62.31;103746.28;4989095;28;115037;-69
2022/01/18 01:56:38;;;;;;;24.60;6.50;;;;;;;10.74;62.27;103749.81;4989474;28;114896;-69
2022/01/18 01:59:05;;;;;;;22.60;5.72;;;;;;;10.73;62.28;103753.38;4989151;28;123559;-69
2022/01/18 02:01:46;;;;;;;20.88;6.22;;;;;;;10.71;62.05;103756.88;4989185;28;124846;-69
2022/01/18 02:04:16;;;;;;;23.25;5.35;;;;;;;10.71;61.95;103751.56;4986699;28;113822;-69
2022/01/18 02:06:44;;;;;;;24.92;5.90;;;;;;;10.73;62.16;103748.06;4989194;28;114526;-69
2022/01/18 02:09:11;;;;;;;24.20;5.95;;;;;;;10.71;62.50;103751.56;4989593;28;124823;-69
2022/01/18 02:11:38;;;;;;;19.48;6.15;;;;;;;10.71;62.44;103751.56;4988879;28;123906;-69
2022/01/18 02:14:07;;;;;;;24.25;6.28;;;;;;;10.73;62.13;103753.38;4989718;28;115064;-69
2022/01/18 02:22:07;;;;;;;;;;;;;;;10.69;62.34;103748.03;4986365;28;124467;-71
2022/01/18 02:24:34;;;;;;;20.33;6.22;;;;;;;10.69;62.18;103747.16;4989099;28;115392;-69
2022/01/18 02:27:01;;;;;;;23.65;6.28;;;;;;;10.67;62.20;103744.50;4989107;28;114999;-69
2022/01/18 02:29:28;;;;;;;26.08;6.00;;;;;;;10.66;62.41;103742.75;4987814;28;123842;-69
2022/01/18 02:31:56;;;;;;;21.45;6.43;;;;;;;10.65;62.43;103743.63;4989085;28;123713;-70
2022/01/18 02:34:24;;;;;;;25.63;6.43;;;;;;;10.64;62.29;103749.84;5007828;28;113558;-69
2022/01/18 02:36:53;;;;;;;20.73;7.10;;;;;;;10.64;62.34;103744.53;4992557;28;113843;-69
2022/01/18 02:39:23;;;;;;;23.13;7.38;;;;;;;10.63;62.40;103742.75;4992548;28;124665;-69
2022/01/18 02:42:02;;;;;;;26.48;6.60;;;;;;;10.64;62.34;103752.47;4992370;28;124641;-69
2022/01/18 02:44:31;;;;;;;26.85;7.03;;;;;;;10.62;62.51;103746.25;4989622;28;114384;-69
2022/01/18 02:46:59;;;;;;;26.23;6.72;;;;;;;10.61;62.25;103744.50;4991212;28;114134;-69
2022/01/18 02:49:28;;;;;;;24.95;7.07;;;;;;;10.62;62.33;103745.38;4991899;28;123883;-69
2022/01/18 02:51:57;;;;;;;24.33;6.72;;;;;;;10.61;62.68;103744.50;4992064;28;124467;-69
2022/01/18 02:54:24;;;;;;;23.40;6.78;;;;;;;10.62;62.47;103740.97;4992416;28;114072;-69
2022/01/18 02:57:03;;;;;;;28.55;6.85;;;;;;;10.61;62.47;103739.22;4991885;28;113975;-69
2022/01/18 03:00:29;;;;;;;19.55;6.28;;;;;;;10.61;62.44;103733.91;4989067;28;123831;-69
2022/01/18 03:05:13;;;;;;;23.73;6.45;;;;;;;10.60;62.47;103739.19;4991323;28;114014;-69
2022/01/18 03:07:41;;;;;;;21.63;6.50;;;;;;;10.59;62.63;103735.69;4991240;28;114567;-69
2022/01/18 03:10:11;;;;;;;25.55;7.05;;;;;;;10.58;62.44;103741.84;4991932;28;124519;-69
2022/01/18 03:12:38;;;;;;;27.90;6.60;;;;;;;10.57;62.98;103745.41;4990847;28;123621;-69
2022/01/18 03:15:06;;;;;;;20.80;6.43;;;;;;;10.56;62.41;103746.25;4991601;28;115525;-69
2022/01/18 03:17:34;;;;;;;25.92;6.45;;;;;;;10.56;62.52;103746.25;4991892;28;114708;-69
2022/01/18 03:20:03;;;;;;;21.08;6.18;;;;;;;10.55;62.62;103760.41;4983752;28;124330;-69
2022/01/18 03:22:31;;;;;;;19.45;6.45;;;;;;;10.55;62.54;103755.13;4978564;28;123293;-69
2022/01/18 03:30:12;;;;;;;24.05;6.53;;;;;;;10.54;62.71;103758.63;4988723;28;124054;-69
2022/01/18 03:32:39;;;;;;;28.25;7.40;;;;;;;10.53;62.53;103756.88;4974279;28;123367;-69
2022/01/18 03:35:08;;;;;;;25.90;6.35;;;;;;;10.52;62.65;103755.97;4991402;28;114277;-69
2022/01/18 03:37:36;;;;;;;27.48;6.88;;;;;;;10.53;62.63;103751.56;4990498;28;113702;-69
2022/01/18 03:40:05;;;;;;;25.17;7.55;;;;;;;10.52;62.48;103757.75;4990658;28;123892;-69
2022/01/18 03:45:06;;;;;;;22.67;6.80;;;;;;;10.53;62.82;103762.19;4990707;28;114849;-69
2022/01/18 03:47:34;;;;;;;29.40;7.63;;;;;;;10.53;62.91;103756.88;4989576;28;113886;-69
2022/01/18 03:50:03;;;;;;;24.05;6.88;;;;;;;10.52;62.89;103755.09;4990900;28;124696;-69
2022/01/18 03:52:31;;;;;;;27.52;7.00;;;;;;;10.53;62.82;103756.88;4991415;28;123580;-69
2022/01/18 03:55:04;;;;;;;27.08;7.65;;;;;;;10.53;62.66;103762.19;4988521;28;114952;-69
2022/01/18 03:57:32;;;;;;;19.40;6.85;;;;;;;10.53;62.92;103767.47;4991923;28;113668;-69
2022/01/18 03:59:59;;;;;;;24.02;7.47;;;;;;;10.52;62.71;103765.69;4990904;28;124353;-68
2022/01/18 04:02:26;;;;;;;22.50;7.20;;;;;;;10.52;62.93;103768.34;4991263;28;123661;-69
2022/01/18 04:04:54;;;;;;;23.63;6.82;;;;;;;10.52;62.70;103771.00;4990519;28;115237;-71
2022/01/18 04:07:21;;;;;;;24.77;7.43;;;;;;;10.53;62.77;103772.78;4989432;28;113655;-69
2022/01/18 04:09:48;;;;;;;24.05;7.70;;;;;;;10.52;62.63;103776.28;4990746;28;124094;-69
2022/01/18 04:12:15;;;;;;;29.10;8.10;;;;;;;10.52;62.94;103776.28;4991171;28;124263;-70
2022/01/18 04:14:43;;;;;;;24.15;7.28;;;;;;;10.50;62.70;103784.22;4991206;28;115197;-69
2022/01/18 04:17:44;;;;;;;36.70;8.43;;;;;;;10.51;62.55;103785.16;4989765;28;113535;-69
2022/01/18 04:26:04;;;;;;;30.52;8.20;;;;;;;10.42;62.94;103779.81;4988984;28;114152;-69
2022/01/18 04:28:41;;;;;;;;;;;;;;;10.39;63.00;103777.13;4986770;28;114367;-69
2022/01/18 04:31:10;;;;;;;41.30;9.13;;;;;;;10.38;62.93;103783.31;4987774;28;124212;-70
2022/01/18 04:33:38;;;;;;;42.25;9.32;;;;;;;10.36;62.87;103780.69;4990607;28;123749;-69
2022/01/18 04:36:07;;;;;;;37.05;8.80;;;;;;;10.35;62.96;103778.91;4991426;28;114818;-69
2022/01/18 04:38:35;;;;;;;39.30;10.05;;;;;;;10.35;63.06;103775.38;4991006;28;113540;-68
2022/01/18 04:41:10;;;;;;;51.42;9.18;;;;;;;10.33;63.11;103776.22;4990219;28;124379;-69
2022/01/18 04:48:53;;;;;;;38.67;9.75;;;;;;;10.28;63.17;103772.69;4989266;28;113084;-69
2022/01/18 04:51:21;;;;;;;38.85;9.13;;;;;;;10.27;63.10;103765.59;4988832;28;124176;-69
2022/01/18 04:53:54;;;;;;;41.80;9.80;;;;;;;10.29;63.24;103768.25;4990207;28;123787;-69
2022/01/18 04:56:30;;;;;;;43.72;9.38;;;;;;;10.29;63.20;103769.13;4987753;28;115428;-69
2022/01/18 04:58:57;;;;;;;36.75;9.27;;;;;;;10.31;63.15;103778.00;4987735;28;114592;-69
2022/01/18 05:01:24;;;;;;;46.60;9.45;;;;;;;10.31;63.38;103780.66;5005426;28;123077;-69
2022/01/18 05:03:51;;;;;;;45.33;11.95;;;;;;;10.28;63.40;103791.22;4988886;28;124633;-69
2022/01/18 05:06:22;;;;;;;40.80;10.70;;;;;;;10.28;63.42;103799.16;4990014;28;114197;-69
2022/01/18 05:08:49;;;;;;;42.85;11.00;;;;;;;10.27;63.28;103802.69;4988831;28;113364;-69
2022/01/18 05:11:19;;;;;;;40.92;10.88;;;;;;;10.26;63.48;103806.19;4988609;28;124984;-68
2022/01/18 05:14:03;;;;;;;50.38;12.95;;;;;;;10.28;63.54;103814.16;4988903;28;124801;-69
2022/01/18 05:19:15;;;;;;;48.50;11.88;;;;;;;10.31;63.27;103804.50;4988075;28;113928;-70
2022/01/18 05:24:24;;;;;;;44.17;11.65;;;;;;;10.35;63.08;103809.81;4986335;28;123683;-69
2022/01/18 05:26:52;;;;;;;50.70;11.88;;;;;;;10.35;63.75;103799.22;4989991;28;114076;-68
2022/01/18 05:29:20;;;;;;;52.00;12.43;;;;;;;10.36;63.48;103788.63;4989041;28;113825;-69
2022/01/18 05:31:47;;;;;;;40.83;12.10;;;;;;;10.35;63.49;103799.22;4989845;28;123980;-69
2022/01/18 05:34:15;;;;;;;52.97;12.30;;;;;;;10.33;63.50;103792.13;4990099;28;124100;-70
2022/01/18 05:36:42;;;;;;;50.38;12.45;;;;;;;10.33;63.28;103797.44;4990194;28;114600;-69
2022/01/18 05:39:10;;;;;;;42.10;11.32;;;;;;;10.33;63.52;103797.44;4991114;28;113673;-69
2022/01/18 05:41:40;;;;;;;41.35;11.00;;;;;;;10.35;63.20;103788.63;4989454;28;124381;-71
2022/01/18 05:44:07;;;;;;;35.85;10.85;;;;;;;10.33;63.31;103786.84;4987955;28;122202;-69
2022/01/18 05:46:35;;;;;;;38.17;10.35;;;;;;;10.31;63.88;103785.94;4989650;28;115221;-69
2022/01/18 05:49:03;;;;;;;37.42;10.15;;;;;;;10.30;63.27;103781.53;4990245;28;116059;-69
2022/01/18 05:51:32;;;;;;;34.42;10.80;;;;;;;10.30;63.66;103778.91;4988534;28;124237;-69
2022/01/18 05:54:00;;;;;;;37.47;10.80;;;;;;;10.30;63.61;103776.25;4989401;28;124062;-69
2022/01/18 05:56:29;;;;;;;38.65;10.63;;;;;;;10.30;63.59;103780.59;4989658;28;114617;-69
2022/01/18 05:59:01;;;;;;;39.60;11.13;;;;;;;10.30;63.22;103780.59;4989865;28;114333;-70
2022/01/18 06:01:33;;;;;;;39.85;10.80;;;;;;;10.29;63.51;103779.72;4986257;28;123747;-70
2022/01/18 06:09:15;;;;;;;;;;;;;;;10.30;63.59;103792.13;4988458;28;115271;-70
2022/01/18 06:11:42;;;;;;;37.53;10.75;;;;;;;10.32;63.65;103794.75;4987360;28;123347;-70
2022/01/18 06:14:09;;;;;;;33.72;9.68;;;;;;;10.31;63.19;103799.19;4989409;28;123953;-70
2022/01/18 06:16:36;;;;;;;35.70;11.18;;;;;;;10.32;63.60;103805.38;4989514;28;114237;-69
2022/01/18 06:19:03;;;;;;;37.47;11.85;;;;;;;10.30;63.36;103802.75;5004429;28;113217;-70
2022/01/18 06:21:31;;;;;;;38.70;10.70;;;;;;;10.29;63.39;103800.91;4989172;28;124104;-70
2022/01/18 06:23:58;;;;;;;35.13;10.90;;;;;;;10.30;63.59;103808.03;4989139;28;123805;-70
2022/01/18 06:26:25;;;;;;;40.55;11.65;;;;;;;10.30;63.75;103813.34;4989647;28;114091;-70
2022/01/18 06:28:53;;;;;;;43.05;11.18;;;;;;;10.31;63.36;103808.91;4989766;28;113796;-70
2022/01/18 06:31:20;;;;;;;37.33;11.70;;;;;;;10.30;63.40;103813.34;4987403;28;124066;-70
2022/01/18 06:33:47;;;;;;;35.65;11.25;;;;;;;10.30;63.38;103808.03;4988697;28;124284;-70
2022/01/18 06:36:15;;;;;;;39.90;12.65;;;;;;;10.29;63.31;103806.22;4988802;28;114934;-69
2022/01/18 06:38:42;;;;;;;41.10;11.63;;;;;;;10.30;63.47;103808.03;4989174;28;114776;-70
2022/01/18 06:41:10;;;;;;;45.92;11.93;;;;;;;10.29;63.46;103811.50;4988952;28;123575;-70
2022/01/18 06:43:37;;;;;;;42.97;12.60;;;;;;;10.31;63.57;103809.78;4988910;28;123739;-69
2022/01/18 06:46:04;;;;;;;40.92;12.27;;;;;;;10.30;63.38;103808.03;4989086;28;114247;-70
2022/01/18 06:48:31;;;;;;;53.72;11.80;;;;;;;10.30;63.29;103802.75;4989327;28;114356;-70
2022/01/18 06:50:59;;;;;;;48.90;12.75;;;;;;;10.31;63.67;103804.50;4988422;28;124250;-69
2022/01/18 06:53:31;;;;;;;46.42;13.18;;;;;;;10.31;63.43;103804.50;4989447;28;123681;-70
2022/01/18 06:55:58;;;;;;;56.65;15.18;;;;;;;10.32;63.20;103797.41;4988281;28;114267;-70
2022/01/18 06:58:25;;;;;;;49.42;13.88;;;;;;;10.30;63.67;103813.34;4987609;28;113407;-70
2022/01/18 07:00:53;;;;;;;52.45;13.02;;;;;;;10.29;63.47;103810.63;4987293;28;124540;-70
2022/01/18 07:03:20;;;;;;;59.00;13.80;;;;;;;10.28;63.42;103809.75;4988695;28;125010;-70
2022/01/18 07:05:47;;;;;;;60.15;13.85;;;;;;;10.27;63.39;103807.97;4989066;28;114308;-70
2022/01/18 07:08:15;;;;;;;44.95;13.43;;;;;;;10.27;63.61;103802.69;4988977;28;114443;-69
2022/01/18 07:10:43;;;;;;;37.38;12.27;;;;;;;10.25;63.59;103804.44;4988543;28;124741;-70
2022/01/18 07:13:11;;;;;;;42.30;11.63;;;;;;;10.25;63.43;103809.75;4990249;28;123868;-70
2022/01/18 07:15:38;;;;;;;42.05;12.38;;;;;;;10.24;63.34;103818.53;4989390;28;114743;-70
2022/01/18 07:18:06;;;;;;;50.53;12.38;;;;;;;10.23;63.62;103816.78;4988385;28;114025;-71
2022/01/18 07:20:34;;;;;;;39.10;11.30;;;;;;;10.22;63.61;103817.66;4987505;28;122943;-71
2022/01/18 07:23:01;;;;;;;40.17;12.13;;;;;;;10.20;63.35;103822.06;4987087;28;123747;-71
2022/01/18 07:25:29;;;;;;;43.95;12.38;;;;;;;10.20;63.50;103822.06;4982681;28;114385;-71
2022/01/18 07:27:57;;;;;;;35.90;11.32;;;;;;;10.20;63.65;103829.13;4988493;28;115426;-71
2022/01/18 07:30:24;;;;;;;41.70;12.13;;;;;;;10.21;63.49;103828.25;5004609;28;123894;-71
2022/01/18 07:32:51;;;;;;;46.10;13.32;;;;;;;10.21;63.39;103823.84;4989864;28;123690;-71
2022/01/18 07:35:18;;;;;;;49.88;12.13;;;;;;;10.21;63.44;103837.09;4989032;28;114178;-71
2022/01/18 07:37:45;;;;;;;48.25;12.50;;;;;;;10.20;63.42;103827.38;4986486;28;113793;-71
2022/01/18 07:40:13;;;;;;;42.05;11.98;;;;;;;10.21;63.64;103834.44;4985410;28;123998;-71
2022/01/18 07:42:40;;;;;;;51.08;12.35;;;;;;;10.22;63.70;103838.84;4988268;28;123151;-71
2022/01/18 07:45:08;;;;;;;40.05;11.85;;;;;;;10.22;63.43;103836.19;4990264;28;113982;-71
2022/01/18 07:47:35;;;;;;;39.13;12.88;;;;;;;10.22;63.35;103836.19;4990272;28;114346;-71
2022/01/18 07:50:03;;;;;;;38.03;12.18;;;;;;;10.20;63.67;103837.97;4990086;28;123936;-71
2022/01/18 07:52:32;;;;;;;48.58;12.57;;;;;;;10.18;63.43;103839.72;4990513;28;123748;-71
2022/01/18 07:54:59;;;;;;;43.13;12.43;;;;;;;10.16;63.37;103841.47;5005653;28;114640;-71
2022/01/18 07:57:26;;;;;;;40.60;12.00;;;;;;;10.14;63.67;103844.13;4991424;28;113942;-71
2022/01/18 07:59:53;;;;;;;35.13;11.00;;;;;;;10.15;63.82;103850.28;4990478;28;125064;-72
2022/01/18 08:02:21;;;;;;;37.38;11.80;;;;;;;10.18;63.77;103847.66;4988784;28;123507;-70
2022/01/18 08:04:48;;;;;;;40.35;11.50;;;;;;;10.17;63.08;103843.25;4987200;28;113047;-72
2022/01/18 08:07:15;;;;;;;33.13;11.02;;;;;;;10.16;63.51;103837.94;4991254;28;113819;-69
2022/01/18 08:09:42;;;;;;;30.77;10.27;;;;;;;10.15;63.47;103829.09;4990654;28;123288;-70
2022/01/18 08:12:09;;;;;;;38.22;10.65;;;;;;;10.15;63.71;103847.63;4990452;28;124036;-70
2022/01/18 08:14:42;;;;;;;34.92;11.32;;;;;;;10.16;63.76;103852.06;4987894;28;114478;-71
2022/01/18 08:17:09;;;;;;;37.00;10.88;;;;;;;10.15;63.53;103845.00;4988790;28;113853;-69
2022/01/18 08:19:36;;;;;;;33.88;11.30;;;;;;;10.14;63.67;103843.25;4989352;28;124233;-70
2022/01/18 08:22:09;;;;;;;30.23;11.05;;;;;;;10.13;63.64;103846.75;4988761;28;123760;-70
2022/01/18 08:24:38;;;;;;;25.40;9.98;;;;;;;10.14;63.39;103837.94;4992435;28;114991;-70
2022/01/18 08:27:05;;;;;;;27.00;10.18;;;;;;;10.14;63.55;103843.25;4994401;28;113550;-70
2022/01/18 08:29:32;;;;;;;29.33;10.35;;;;;;;10.14;63.71;103838.81;4991055;28;123735;-70
2022/01/18 08:32:16;;;;;;;27.40;10.25;;;;;;;10.15;63.90;103839.69;4996850;28;124605;-70
2022/01/18 08:34:43;;;;;;;33.95;10.43;;;;;;;10.14;63.83;103837.94;5000032;28;114134;-70
2022/01/18 08:37:11;;;;;;;32.30;10.95;;;;;;;10.16;63.63;103830.88;5009943;28;114302;-70
2022/01/18 08:39:38;;;;;;;26.40;10.35;;;;;;;10.15;63.61;103834.41;5001708;28;124995;-69
2022/01/18 08:42:05;;;;;;;33.15;11.00;;;;;;;10.17;63.63;103837.06;4989243;28;124394;-69
2022/01/18 08:44:34;;;;;;;33.45;11.05;;;;;;;10.17;63.83;103845.00;4992454;28;114326;-70
2022/01/18 08:47:01;;;;;;;29.90;10.27;;;;;;;10.17;63.55;103843.25;4991453;28;114194;-70
2022/01/18 08:49:28;;;;;;;33.25;11.10;;;;;;;10.18;63.74;103839.72;4991480;28;123895;-70
2022/01/18 08:51:56;;;;;;;29.20;11.35;;;;;;;10.20;63.46;103840.59;4989753;28;123685;-71
2022/01/18 08:54:23;;;;;;;33.83;11.35;;;;;;;10.21;63.63;103838.84;4990404;28;114113;-71
2022/01/18 08:56:50;;;;;;;33.78;11.27;;;;;;;10.20;63.52;103843.25;4990298;28;114284;-70
2022/01/18 08:59:22;;;;;;;38.75;12.20;;;;;;;10.20;63.62;103843.25;4990446;28;124805;-70
2022/01/18 09:01:50;;;;;;;38.90;11.85;;;;;;;10.21;63.84;103850.34;4990131;28;124478;-70
2022/01/18 09:04:19;;;;;;;36.30;11.77;;;;;;;10.22;63.86;103851.22;4990595;28;115338;-76
2022/01/18 09:06:50;;;;;;;39.42;12.82;;;;;;;10.29;66.76;103848.59;4992221;28;114607;-78
2022/01/18 09:09:18;;;;;;;39.65;13.15;;;;;;;10.52;65.48;103850.50;4972807;28;123337;-76
2022/01/18 09:11:46;;;;;;;35.33;12.68;;;;;;;10.56;65.03;103846.97;4990433;28;123727;-77
2022/01/18 09:14:14;;;;;;;35.55;12.10;;;;;;;10.58;64.56;103849.63;4990459;28;114182;-77
2022/01/18 09:16:42;;;;;;;40.30;12.13;;;;;;;10.58;64.32;103854.94;4989402;28;114719;-77
2022/01/18 09:19:09;;;;;;;38.58;12.15;;;;;;;10.56;63.90;103856.69;4990642;28;124044;-77
2022/01/18 09:21:37;;;;;;;41.63;12.25;;;;;;;10.54;64.30;103861.97;4991135;28;123491;-77
2022/01/18 09:24:05;;;;;;;45.13;11.20;;;;;;;10.53;63.85;103857.59;4990337;28;114957;-76
2022/01/18 09:26:35;;;;;;;34.10;10.98;;;;;;;10.53;64.04;103852.28;4972332;28;112610;-76
2022/01/18 09:29:03;;;;;;;37.05;11.63;;;;;;;10.51;63.86;103860.22;4988689;28;124997;-76
2022/01/18 09:31:30;;;;;;;39.78;12.02;;;;;;;10.51;63.62;103854.03;4987857;28;122930;-77
2022/01/18 09:33:57;;;;;;;41.67;11.07;;;;;;;10.48;63.82;103854.00;4989490;28;114262;-77
2022/01/18 09:36:24;;;;;;;33.45;10.32;;;;;;;10.48;63.87;103854.00;4989392;28;113260;-77
2022/01/18 09:38:51;;;;;;;27.25;9.77;;;;;;;10.49;63.64;103845.16;4991547;28;123980;-75
2022/01/18 09:41:21;;;;;;;32.08;11.23;;;;;;;10.48;63.72;103859.31;4987822;28;123984;-75
2022/01/18 09:43:51;;;;;;;38.78;11.98;;;;;;;10.49;63.93;103861.06;4988369;28;113536;-75
2022/01/18 09:46:19;;;;;;;39.72;12.23;;;;;;;10.50;63.78;103868.16;4990486;28;113862;-75
2022/01/18 09:48:46;;;;;;;39.75;13.52;;;;;;;10.51;63.96;103869.94;4990028;28;123801;-75
2022/01/18 09:51:13;;;;;;;51.67;13.57;;;;;;;10.51;63.92;103869.94;4989096;28;123784;-75
2022/01/18 09:53:40;;;;;;;53.38;14.38;;;;;;;10.51;64.01;103880.53;4988593;28;115286;-75
2022/01/18 09:56:07;;;;;;;45.88;13.95;;;;;;;10.53;64.14;103878.78;4987976;28;114673;-74
2022/01/18 09:58:34;;;;;;;49.30;13.52;;;;;;;10.57;64.06;103875.25;4982286;28;123570;-75
2022/01/18 10:01:02;;;;;;;46.65;13.27;;;;;;;10.59;63.54;103878.78;4985229;28;123171;-75
2022/01/18 10:03:32;;;;;;;44.15;12.65;;;;;;;10.61;63.83;103877.03;4983446;28;116427;-75
2022/01/18 10:06:02;;;;;;;50.88;13.90;;;;;;;10.60;63.74;103883.19;4986841;28;112220;-75
2022/01/18 10:08:36;;;;;;;49.10;12.63;;;;;;;10.59;64.02;103889.41;4988203;28;123236;-76
2022/01/18 10:11:13;;;;;;;45.20;13.48;;;;;;;10.61;63.79;103892.94;4987289;28;123696;-76
2022/01/18 10:13:42;;;;;;;44.83;13.13;;;;;;;10.63;63.87;103885.88;4985620;28;114941;-76
2022/01/18 10:16:14;;;;;;;39.25;11.95;;;;;;;10.66;64.07;103885.91;4986067;28;113852;-76
2022/01/18 10:18:51;;;;;;;34.20;11.30;;;;;;;10.66;63.93;103885.91;4986188;28;123007;-76
2022/01/18 10:21:39;;;;;;;30.98;10.77;;;;;;;10.67;63.75;103882.34;5003790;28;122722;-76
2022/01/18 10:24:15;;;;;;;26.33;11.10;;;;;;;10.67;63.71;103892.94;4989666;28;115074;-75
2022/01/18 10:26:45;;;;;;;30.10;10.63;;;;;;;10.69;63.92;103888.53;5007185;28;112820;-75
2022/01/18 10:29:15;;;;;;;28.65;11.15;;;;;;;10.70;64.12;103882.38;5009587;28;123859;-76
2022/01/18 10:31:57;;;;;;;34.10;11.50;;;;;;;10.75;64.11;103878.84;4997523;28;123201;-76
2022/01/18 10:37:14;;;;;;;35.30;10.43;;;;;;;10.83;63.94;103882.38;4987932;28;113277;-76
2022/01/18 10:39:48;;;;;;;34.63;10.20;;;;;;;10.85;63.77;103883.28;4989199;28;124381;-76
2022/01/18 10:42:26;;;;;;;28.42;10.02;;;;;;;10.85;63.88;103875.31;4986260;28;123939;-76
2022/01/18 10:45:14;;;;;;;30.30;10.80;;;;;;;10.86;63.81;103871.81;4985821;28;114881;-76
2022/01/18 10:47:52;;;;;;;27.85;9.93;;;;;;;10.86;63.81;103866.50;4984832;28;115079;-75
2022/01/18 10:50:19;;;;;;;21.65;9.48;;;;;;;10.87;63.77;103865.63;4988619;28;123927;-76
2022/01/18 10:52:47;;;;;;;30.92;11.38;;;;;;;10.88;64.12;103859.44;4987171;28;124929;-76
2022/01/18 10:55:20;;;;;;;34.40;10.82;;;;;;;10.91;63.88;103860.31;4991273;28;114039;-76
2022/01/18 10:57:48;;;;;;;29.65;11.20;;;;;;;10.96;63.94;103857.66;4974987;28;113172;-76
2022/01/18 11:00:22;;;;;;;39.30;12.20;;;;;;;11.01;63.69;103863.88;4988776;28;124347;-76
2022/01/18 11:02:53;;;;;;;44.05;11.52;;;;;;;11.06;63.65;103859.47;5006560;28;121864;-76
2022/01/18 11:05:28;;;;;;;35.22;12.48;;;;;;;11.10;63.89;103853.28;4989498;28;113959;-76
2022/01/18 11:08:00;;;;;;;42.30;12.10;;;;;;;11.15;63.78;103852.41;4983512;28;112254;-76
2022/01/18 11:10:32;;;;;;;39.40;12.02;;;;;;;11.18;63.79;103852.41;4968569;28;123498;-76
2022/01/18 11:13:23;;;;;;;42.10;12.40;;;;;;;11.23;63.76;103853.31;4968549;28;124579;-76
2022/01/18 11:16:01;;;;;;;40.72;11.25;;;;;;;11.29;63.75;103845.34;4971284;28;112486;-77
2022/01/18 11:18:31;;;;;;;36.60;11.57;;;;;;;11.33;63.78;103847.09;4984860;28;114132;-76
2022/01/18 11:21:02;;;;;;;42.85;12.05;;;;;;;11.36;63.54;103847.13;4989708;28;123671;-76
2022/01/18 11:23:35;;;;;;;33.15;10.77;;;;;;;11.39;63.52;103841.78;4992183;28;123559;-77
2022/01/18 11:26:02;;;;;;;37.78;11.55;;;;;;;11.42;63.58;103833.84;4989216;28;114313;-76
2022/01/18 11:28:33;;;;;;;33.22;10.98;;;;;;;11.46;63.46;103827.66;4992747;28;113023;-76
2022/01/18 11:31:00;;;;;;;30.85;11.13;;;;;;;11.48;63.52;103828.53;4991132;28;124271;-77
2022/01/18 11:33:34;;;;;;;32.58;10.60;;;;;;;11.49;63.19;103830.31;4991885;28;123618;-76
2022/01/18 11:36:06;;;;;;;33.00;11.02;;;;;;;11.53;63.47;103827.63;4989634;28;114280;-76
2022/01/18 11:38:33;;;;;;;30.38;10.23;;;;;;;11.57;63.35;103829.41;4990212;28;114950;-76
2022/01/18 11:41:08;;;;;;;31.45;10.23;;;;;;;11.61;63.43;103831.19;4989898;28;124039;-76
2022/01/18 11:43:38;;;;;;;31.90;9.93;;;;;;;11.64;63.24;103831.16;4992144;28;123823;-76
2022/01/18 11:46:34;;;;;;;32.88;11.48;;;;;;;11.69;63.42;103824.06;4990632;28;113792;-76
2022/01/18 11:49:15;;;;;;;24.37;9.53;;;;;;;11.75;63.29;103824.06;4990804;28;113839;-76
2022/01/18 11:52:07;;;;;;;34.33;10.43;;;;;;;11.78;62.94;103832.03;4989929;28;122991;-76
2022/01/18 11:57:22;;;;;;;30.02;10.25;;;;;;;11.80;63.15;103832.03;4990943;28;113109;-76
2022/01/18 12:00:23;;;;;;;29.08;10.60;;;;;;;11.81;63.25;103834.69;4975068;28;113328;-76
2022/01/18 12:02:55;;;;;;;32.92;11.75;;;;;;;11.84;63.34;103837.31;4966979;28;123801;-76
2022/01/18 12:05:25;;;;;;;41.17;13.88;;;;;;;11.85;63.03;103835.56;4967872;28;123257;-76
2022/01/18 12:07:55;;;;;;;50.13;16.25;;;;;;;11.84;63.14;103834.66;4969556;28;113328;-76
2022/01/18 12:10:32;;;;;;;41.55;14.77;;;;;;;11.85;63.17;103831.13;4970117;28;114199;-77
2022/01/18 12:13:13;;;;;;;37.75;13.70;;;;;;;11.88;63.00;103831.13;4967287;28;123843;-76
2022/01/18 12:15:50;;;;;;;39.75;12.98;;;;;;;11.93;62.99;103827.63;4969302;28;124252;-76
2022/01/18 12:18:21;;;;;;;41.13;13.23;;;;;;;11.94;63.03;103821.41;4970493;28;114618;-77
2022/01/18 12:20:51;;;;;;;32.33;11.88;;;;;;;11.97;62.96;103814.31;4971829;28;113934;-76
2022/01/18 12:23:26;;;;;;;34.95;11.95;;;;;;;12.01;62.94;103809.88;4969580;28;123368;-76
2022/01/18 12:26:01;;;;;;;34.55;12.18;;;;;;;12.04;62.87;103800.13;4986349;28;123580;-76
2022/01/18 12:29:07;;;;;;;27.50;9.05;;;;;;;12.09;62.61;103808.06;4968484;28;115092;-76
2022/01/18 12:34:33;;;;;;;21.15;7.45;;;;;;;12.17;62.35;103797.44;4969962;28;123416;-77